sensor_id;sensor_type;location;lat;lon;timestamp;temperature;humidity
16863;DHT22;52193;48.216;-1.698;2023-03-23T00:01:19;16.00;99.90
16863;DHT22;52193;48.216;-1.698;2023-03-23T00:03:48;16.00;99.90
16863;DHT22;52193;48.216;-1.698;2023-03-23T00:06:17;15.90;99.90
16863;DHT22;52193;48.216;-1.698;2023-03-23T00:08:45;15.90;99.90
16863;DHT22;52193;48.216;-1.698;2023-03-23T00:11:13;15.90;99.90
16863;DHT22;52193;48.216;-1.698;2023-03-23T00:13:41;16.00;99.90
16863;DHT22;52193;48.216;-1.698;2023-03-23T00:16:09;15.90;99.90
16863;DHT22;52193;48.216;-1.698;2023-03-23T00:18:44;15.90;99.90
16863;DHT22;52193;48.216;-1.698;2023-03-23T00:21:11;15.90;99.90
16863;DHT22;52193;48.216;-1.698;2023-03-23T00:23:39;15.80;99.90
16863;DHT22;52193;48.216;-1.698;2023-03-23T00:26:11;15.80;99.90
16863;DHT22;52193;48.216;-1.698;2023-03-23T00:28:38;16.00;99.90
16863;DHT22;52193;48.216;-1.698;2023-03-23T00:31:06;15.90;99.90
16863;DHT22;52193;48.216;-1.698;2023-03-23T00:33:36;16.00;99.90
16863;DHT22;52193;48.216;-1.698;2023-03-23T00:36:07;16.00;99.90
16863;DHT22;52193;48.216;-1.698;2023-03-23T00:38:35;16.00;99.90
16863;DHT22;52193;48.216;-1.698;2023-03-23T00:41:04;16.10;99.90
16863;DHT22;52193;48.216;-1.698;2023-03-23T00:43:32;16.10;99.90
16863;DHT22;52193;48.216;-1.698;2023-03-23T00:46:01;16.10;99.90
16863;DHT22;52193;48.216;-1.698;2023-03-23T00:48:35;16.10;99.90
16863;DHT22;52193;48.216;-1.698;2023-03-23T00:51:02;16.10;99.90
16863;DHT22;52193;48.216;-1.698;2023-03-23T00:53:31;16.00;99.90
16863;DHT22;52193;48.216;-1.698;2023-03-23T00:55:58;16.00;99.90
16863;DHT22;52193;48.216;-1.698;2023-03-23T00:58:26;16.00;99.90
16863;DHT22;52193;48.216;-1.698;2023-03-23T01:00:53;16.00;99.90
16863;DHT22;52193;48.216;-1.698;2023-03-23T01:03:22;16.00;99.90
16863;DHT22;52193;48.216;-1.698;2023-03-23T01:05:51;16.00;99.90
16863;DHT22;52193;48.216;-1.698;2023-03-23T01:08:19;15.90;99.90
16863;DHT22;52193;48.216;-1.698;2023-03-23T01:10:47;15.90;99.90
16863;DHT22;52193;48.216;-1.698;2023-03-23T01:13:14;15.90;99.90
16863;DHT22;52193;48.216;-1.698;2023-03-23T01:15:43;15.90;99.90
16863;DHT22;52193;48.216;-1.698;2023-03-23T01:18:10;15.90;99.90
16863;DHT22;52193;48.216;-1.698;2023-03-23T01:20:37;15.90;99.90
16863;DHT22;52193;48.216;-1.698;2023-03-23T01:23:04;15.90;99.90
16863;DHT22;52193;48.216;-1.698;2023-03-23T01:25:34;15.90;99.90
16863;DHT22;52193;48.216;-1.698;2023-03-23T01:28:01;15.90;99.90
16863;DHT22;52193;48.216;-1.698;2023-03-23T01:30:28;16.00;99.90
16863;DHT22;52193;48.216;-1.698;2023-03-23T01:32:57;15.90;99.90
16863;DHT22;52193;48.216;-1.698;2023-03-23T01:35:23;15.90;99.90
16863;DHT22;52193;48.216;-1.698;2023-03-23T01:37:50;15.80;99.90
16863;DHT22;52193;48.216;-1.698;2023-03-23T01:40:17;15.80;99.90
16863;DHT22;52193;48.216;-1.698;2023-03-23T01:42:44;15.80;99.90
16863;DHT22;52193;48.216;-1.698;2023-03-23T01:45:24;15.80;99.90
16863;DHT22;52193;48.216;-1.698;2023-03-23T01:47:57;15.80;99.90
16863;DHT22;52193;48.216;-1.698;2023-03-23T01:50:27;15.80;99.90
16863;DHT22;52193;48.216;-1.698;2023-03-23T01:52:57;15.80;99.90
16863;DHT22;52193;48.216;-1.698;2023-03-23T01:55:26;15.80;99.90
16863;DHT22;52193;48.216;-1.698;2023-03-23T01:57:55;15.90;99.90
16863;DHT22;52193;48.216;-1.698;2023-03-23T02:00:23;15.90;99.90
16863;DHT22;52193;48.216;-1.698;2023-03-23T02:02:51;15.90;99.90
16863;DHT22;52193;48.216;-1.698;2023-03-23T02:05:26;16.00;99.90
16863;DHT22;52193;48.216;-1.698;2023-03-23T02:07:57;15.90;99.90
16863;DHT22;52193;48.216;-1.698;2023-03-23T02:10:28;16.00;99.90
16863;DHT22;52193;48.216;-1.698;2023-03-23T02:12:55;15.90;99.90
16863;DHT22;52193;48.216;-1.698;2023-03-23T02:15:24;15.90;99.90
16863;DHT22;52193;48.216;-1.698;2023-03-23T02:17:56;15.90;99.90
16863;DHT22;52193;48.216;-1.698;2023-03-23T02:20:43;15.80;99.90
16863;DHT22;52193;48.216;-1.698;2023-03-23T02:26:41;15.80;99.90
16863;DHT22;52193;48.216;-1.698;2023-03-23T02:29:28;15.80;99.90
16863;DHT22;52193;48.216;-1.698;2023-03-23T02:32:12;15.70;99.90
16863;DHT22;52193;48.216;-1.698;2023-03-23T02:34:46;15.80;99.90
16863;DHT22;52193;48.216;-1.698;2023-03-23T02:37:21;15.70;99.90
16863;DHT22;52193;48.216;-1.698;2023-03-23T02:39:52;15.70;99.90
16863;DHT22;52193;48.216;-1.698;2023-03-23T02:42:24;15.70;99.90
16863;DHT22;52193;48.216;-1.698;2023-03-23T02:44:53;15.70;99.90
16863;DHT22;52193;48.216;-1.698;2023-03-23T02:47:23;15.60;99.90
16863;DHT22;52193;48.216;-1.698;2023-03-23T02:49:54;15.70;99.90
16863;DHT22;52193;48.216;-1.698;2023-03-23T02:52:25;15.70;99.90
16863;DHT22;52193;48.216;-1.698;2023-03-23T02:54:53;15.70;99.90
16863;DHT22;52193;48.216;-1.698;2023-03-23T02:57:22;15.70;99.90
16863;DHT22;52193;48.216;-1.698;2023-03-23T02:59:50;15.70;99.90
16863;DHT22;52193;48.216;-1.698;2023-03-23T03:02:18;15.70;99.90
16863;DHT22;52193;48.216;-1.698;2023-03-23T03:04:51;15.70;99.90
16863;DHT22;52193;48.216;-1.698;2023-03-23T03:07:44;15.60;99.90
16863;DHT22;52193;48.216;-1.698;2023-03-23T03:10:19;15.50;99.90
16863;DHT22;52193;48.216;-1.698;2023-03-23T03:12:55;15.50;99.90
16863;DHT22;52193;48.216;-1.698;2023-03-23T03:15:27;15.50;99.90
16863;DHT22;52193;48.216;-1.698;2023-03-23T03:18:02;15.50;99.90
16863;DHT22;52193;48.216;-1.698;2023-03-23T03:20:33;15.60;99.90
16863;DHT22;52193;48.216;-1.698;2023-03-23T03:23:04;15.50;99.90
16863;DHT22;52193;48.216;-1.698;2023-03-23T03:25:33;15.50;99.90
16863;DHT22;52193;48.216;-1.698;2023-03-23T03:28:02;15.50;99.90
16863;DHT22;52193;48.216;-1.698;2023-03-23T03:30:30;15.50;99.90
16863;DHT22;52193;48.216;-1.698;2023-03-23T03:32:59;15.50;99.90
16863;DHT22;52193;48.216;-1.698;2023-03-23T03:35:29;15.50;99.90
16863;DHT22;52193;48.216;-1.698;2023-03-23T03:37:57;15.50;99.90
16863;DHT22;52193;48.216;-1.698;2023-03-23T03:40:32;15.50;99.90
16863;DHT22;52193;48.216;-1.698;2023-03-23T03:42:59;15.50;99.90
16863;DHT22;52193;48.216;-1.698;2023-03-23T03:45:26;15.50;99.90
16863;DHT22;52193;48.216;-1.698;2023-03-23T03:47:53;15.60;99.90
16863;DHT22;52193;48.216;-1.698;2023-03-23T03:50:20;15.60;99.90
16863;DHT22;52193;48.216;-1.698;2023-03-23T03:52:47;15.60;99.90
16863;DHT22;52193;48.216;-1.698;2023-03-23T03:55:14;15.50;99.90
16863;DHT22;52193;48.216;-1.698;2023-03-23T03:57:43;15.60;99.90
16863;DHT22;52193;48.216;-1.698;2023-03-23T04:00:11;15.50;99.90
16863;DHT22;52193;48.216;-1.698;2023-03-23T04:02:42;15.50;99.90
16863;DHT22;52193;48.216;-1.698;2023-03-23T04:05:09;15.50;99.90
16863;DHT22;52193;48.216;-1.698;2023-03-23T04:07:37;15.50;99.90
16863;DHT22;52193;48.216;-1.698;2023-03-23T04:10:06;15.40;99.90
16863;DHT22;52193;48.216;-1.698;2023-03-23T04:12:34;15.50;99.90
16863;DHT22;52193;48.216;-1.698;2023-03-23T04:15:03;15.50;99.90
16863;DHT22;52193;48.216;-1.698;2023-03-23T04:17:30;15.60;99.90
16863;DHT22;52193;48.216;-1.698;2023-03-23T04:19:58;15.60;99.90
16863;DHT22;52193;48.216;-1.698;2023-03-23T04:22:26;15.70;99.90
16863;DHT22;52193;48.216;-1.698;2023-03-23T04:24:57;15.60;99.90
16863;DHT22;52193;48.216;-1.698;2023-03-23T04:27:26;15.60;99.90
16863;DHT22;52193;48.216;-1.698;2023-03-23T04:29:54;15.60;99.90
16863;DHT22;52193;48.216;-1.698;2023-03-23T04:32:23;15.50;99.90
16863;DHT22;52193;48.216;-1.698;2023-03-23T04:34:50;15.60;99.90
16863;DHT22;52193;48.216;-1.698;2023-03-23T04:37:17;15.60;99.90
16863;DHT22;52193;48.216;-1.698;2023-03-23T04:39:44;15.60;99.90
16863;DHT22;52193;48.216;-1.698;2023-03-23T04:42:11;15.60;99.90
16863;DHT22;52193;48.216;-1.698;2023-03-23T04:44:40;15.60;99.90
16863;DHT22;52193;48.216;-1.698;2023-03-23T04:47:09;15.60;99.90
16863;DHT22;52193;48.216;-1.698;2023-03-23T04:49:37;15.70;99.90
16863;DHT22;52193;48.216;-1.698;2023-03-23T04:52:04;15.70;99.90
16863;DHT22;52193;48.216;-1.698;2023-03-23T04:54:31;15.70;99.90
16863;DHT22;52193;48.216;-1.698;2023-03-23T04:56:58;15.70;99.90
16863;DHT22;52193;48.216;-1.698;2023-03-23T04:59:26;15.70;99.90
16863;DHT22;52193;48.216;-1.698;2023-03-23T05:01:53;15.70;99.90
16863;DHT22;52193;48.216;-1.698;2023-03-23T05:04:21;15.70;99.90
16863;DHT22;52193;48.216;-1.698;2023-03-23T05:06:52;15.70;99.90
16863;DHT22;52193;48.216;-1.698;2023-03-23T05:09:19;15.80;99.90
16863;DHT22;52193;48.216;-1.698;2023-03-23T05:11:46;15.70;99.90
16863;DHT22;52193;48.216;-1.698;2023-03-23T05:14:13;15.80;99.90
16863;DHT22;52193;48.216;-1.698;2023-03-23T05:16:40;15.80;99.90
16863;DHT22;52193;48.216;-1.698;2023-03-23T05:19:07;15.70;99.90
16863;DHT22;52193;48.216;-1.698;2023-03-23T05:21:34;15.80;99.90
16863;DHT22;52193;48.216;-1.698;2023-03-23T05:24:05;15.70;99.90
16863;DHT22;52193;48.216;-1.698;2023-03-23T05:26:32;15.70;99.90
16863;DHT22;52193;48.216;-1.698;2023-03-23T05:28:59;15.70;99.90
16863;DHT22;52193;48.216;-1.698;2023-03-23T05:31:26;15.80;99.90
16863;DHT22;52193;48.216;-1.698;2023-03-23T05:33:52;15.80;99.90
16863;DHT22;52193;48.216;-1.698;2023-03-23T05:36:19;15.80;99.90
16863;DHT22;52193;48.216;-1.698;2023-03-23T05:38:48;15.80;99.90
16863;DHT22;52193;48.216;-1.698;2023-03-23T05:41:18;15.80;99.90
16863;DHT22;52193;48.216;-1.698;2023-03-23T05:43:46;15.70;99.90
16863;DHT22;52193;48.216;-1.698;2023-03-23T05:46:13;15.80;99.90
16863;DHT22;52193;48.216;-1.698;2023-03-23T05:48:40;15.70;99.90
16863;DHT22;52193;48.216;-1.698;2023-03-23T05:51:07;15.80;99.90
16863;DHT22;52193;48.216;-1.698;2023-03-23T05:53:35;15.80;99.90
16863;DHT22;52193;48.216;-1.698;2023-03-23T05:56:04;15.80;99.90
16863;DHT22;52193;48.216;-1.698;2023-03-23T05:58:33;15.80;99.90
16863;DHT22;52193;48.216;-1.698;2023-03-23T06:01:00;15.70;99.90
16863;DHT22;52193;48.216;-1.698;2023-03-23T06:03:27;15.80;99.90
16863;DHT22;52193;48.216;-1.698;2023-03-23T06:05:54;15.70;99.90
16863;DHT22;52193;48.216;-1.698;2023-03-23T06:08:21;15.70;99.90
16863;DHT22;52193;48.216;-1.698;2023-03-23T06:10:48;15.80;99.90
16863;DHT22;52193;48.216;-1.698;2023-03-23T06:13:15;15.80;99.90
16863;DHT22;52193;48.216;-1.698;2023-03-23T06:15:43;15.70;99.90
16863;DHT22;52193;48.216;-1.698;2023-03-23T06:18:10;15.70;99.90
16863;DHT22;52193;48.216;-1.698;2023-03-23T06:20:38;15.80;99.90
16863;DHT22;52193;48.216;-1.698;2023-03-23T06:23:06;15.80;99.90
16863;DHT22;52193;48.216;-1.698;2023-03-23T06:25:34;15.90;99.90
16863;DHT22;52193;48.216;-1.698;2023-03-23T06:28:01;15.90;99.90
16863;DHT22;52193;48.216;-1.698;2023-03-23T06:30:28;15.80;99.90
16863;DHT22;52193;48.216;-1.698;2023-03-23T06:32:57;15.80;99.90
16863;DHT22;52193;48.216;-1.698;2023-03-23T06:35:24;15.90;99.90
16863;DHT22;52193;48.216;-1.698;2023-03-23T06:37:51;15.90;99.90
16863;DHT22;52193;48.216;-1.698;2023-03-23T06:40:19;15.90;99.90
16863;DHT22;52193;48.216;-1.698;2023-03-23T06:42:47;15.90;99.90
16863;DHT22;52193;48.216;-1.698;2023-03-23T06:45:14;15.90;99.90
16863;DHT22;52193;48.216;-1.698;2023-03-23T06:47:41;15.90;99.90
16863;DHT22;52193;48.216;-1.698;2023-03-23T06:50:10;16.00;99.90
16863;DHT22;52193;48.216;-1.698;2023-03-23T06:52:37;16.00;99.90
16863;DHT22;52193;48.216;-1.698;2023-03-23T06:55:05;16.00;99.90
16863;DHT22;52193;48.216;-1.698;2023-03-23T06:57:32;16.00;99.90
16863;DHT22;52193;48.216;-1.698;2023-03-23T06:59:59;15.90;99.90
16863;DHT22;52193;48.216;-1.698;2023-03-23T07:02:26;16.00;99.90
16863;DHT22;52193;48.216;-1.698;2023-03-23T07:04:54;16.10;99.90
16863;DHT22;52193;48.216;-1.698;2023-03-23T07:07:23;16.10;99.90
16863;DHT22;52193;48.216;-1.698;2023-03-23T07:09:50;16.10;99.90
16863;DHT22;52193;48.216;-1.698;2023-03-23T07:12:17;16.10;99.90
16863;DHT22;52193;48.216;-1.698;2023-03-23T07:14:44;16.00;99.90
16863;DHT22;52193;48.216;-1.698;2023-03-23T07:17:11;16.10;99.90
16863;DHT22;52193;48.216;-1.698;2023-03-23T07:19:38;16.10;99.90
16863;DHT22;52193;48.216;-1.698;2023-03-23T07:22:06;16.10;99.90
16863;DHT22;52193;48.216;-1.698;2023-03-23T07:24:35;16.10;99.90
16863;DHT22;52193;48.216;-1.698;2023-03-23T07:27:02;16.20;99.90
16863;DHT22;52193;48.216;-1.698;2023-03-23T07:29:29;16.10;99.90
16863;DHT22;52193;48.216;-1.698;2023-03-23T07:31:56;16.10;99.90
16863;DHT22;52193;48.216;-1.698;2023-03-23T07:34:23;16.20;99.90
16863;DHT22;52193;48.216;-1.698;2023-03-23T07:36:50;16.20;99.90
16863;DHT22;52193;48.216;-1.698;2023-03-23T07:39:17;16.30;99.90
16863;DHT22;52193;48.216;-1.698;2023-03-23T07:41:45;16.30;99.90
16863;DHT22;52193;48.216;-1.698;2023-03-23T07:44:12;16.30;99.90
16863;DHT22;52193;48.216;-1.698;2023-03-23T07:46:40;16.40;99.90
16863;DHT22;52193;48.216;-1.698;2023-03-23T07:49:07;16.40;99.90
16863;DHT22;52193;48.216;-1.698;2023-03-23T07:51:34;16.50;99.90
16863;DHT22;52193;48.216;-1.698;2023-03-23T07:54:04;16.50;99.90
16863;DHT22;52193;48.216;-1.698;2023-03-23T07:56:32;16.50;99.90
16863;DHT22;52193;48.216;-1.698;2023-03-23T07:59:01;16.50;99.90
16863;DHT22;52193;48.216;-1.698;2023-03-23T08:01:28;16.50;99.90
16863;DHT22;52193;48.216;-1.698;2023-03-23T08:03:55;16.50;99.90
16863;DHT22;52193;48.216;-1.698;2023-03-23T08:06:23;16.60;99.90
16863;DHT22;52193;48.216;-1.698;2023-03-23T08:08:50;16.60;99.90
16863;DHT22;52193;48.216;-1.698;2023-03-23T08:11:17;16.60;99.90
16863;DHT22;52193;48.216;-1.698;2023-03-23T08:13:44;16.70;99.90
16863;DHT22;52193;48.216;-1.698;2023-03-23T08:16:12;16.80;99.90
16863;DHT22;52193;48.216;-1.698;2023-03-23T08:18:40;16.90;99.90
16863;DHT22;52193;48.216;-1.698;2023-03-23T08:21:07;16.80;99.90
16863;DHT22;52193;48.216;-1.698;2023-03-23T08:23:35;16.80;99.90
16863;DHT22;52193;48.216;-1.698;2023-03-23T08:26:03;16.90;99.90
16863;DHT22;52193;48.216;-1.698;2023-03-23T08:28:31;16.90;99.90
16863;DHT22;52193;48.216;-1.698;2023-03-23T08:30:58;16.90;99.90
16863;DHT22;52193;48.216;-1.698;2023-03-23T08:33:27;17.00;99.90
16863;DHT22;52193;48.216;-1.698;2023-03-23T08:35:55;17.00;99.90
16863;DHT22;52193;48.216;-1.698;2023-03-23T08:38:22;17.00;99.90
16863;DHT22;52193;48.216;-1.698;2023-03-23T08:40:49;17.00;99.90
16863;DHT22;52193;48.216;-1.698;2023-03-23T08:43:17;17.10;99.90
16863;DHT22;52193;48.216;-1.698;2023-03-23T08:45:43;17.00;99.90
16863;DHT22;52193;48.216;-1.698;2023-03-23T08:48:10;17.00;99.90
16863;DHT22;52193;48.216;-1.698;2023-03-23T08:50:39;17.10;99.90
16863;DHT22;52193;48.216;-1.698;2023-03-23T08:53:06;17.00;99.90
16863;DHT22;52193;48.216;-1.698;2023-03-23T08:55:34;17.00;99.90
16863;DHT22;52193;48.216;-1.698;2023-03-23T08:58:01;17.00;99.90
16863;DHT22;52193;48.216;-1.698;2023-03-23T09:00:29;17.00;99.90
16863;DHT22;52193;48.216;-1.698;2023-03-23T09:02:56;17.00;99.90
16863;DHT22;52193;48.216;-1.698;2023-03-23T09:05:25;16.80;99.90
16863;DHT22;52193;48.216;-1.698;2023-03-23T09:07:55;16.70;99.90
16863;DHT22;52193;48.216;-1.698;2023-03-23T09:10:25;16.70;99.90
16863;DHT22;52193;48.216;-1.698;2023-03-23T09:12:53;16.70;99.90
16863;DHT22;52193;48.216;-1.698;2023-03-23T09:15:22;16.70;99.90
16863;DHT22;52193;48.216;-1.698;2023-03-23T09:17:50;16.70;99.90
16863;DHT22;52193;48.216;-1.698;2023-03-23T09:20:19;16.80;99.90
16863;DHT22;52193;48.216;-1.698;2023-03-23T09:22:49;16.80;99.90
16863;DHT22;52193;48.216;-1.698;2023-03-23T09:25:19;16.90;99.90
16863;DHT22;52193;48.216;-1.698;2023-03-23T09:27:49;16.90;99.90
16863;DHT22;52193;48.216;-1.698;2023-03-23T09:30:19;16.90;99.90
16863;DHT22;52193;48.216;-1.698;2023-03-23T09:32:47;16.90;99.90
16863;DHT22;52193;48.216;-1.698;2023-03-23T09:35:15;17.00;99.90
16863;DHT22;52193;48.216;-1.698;2023-03-23T09:37:43;17.00;99.90
16863;DHT22;52193;48.216;-1.698;2023-03-23T09:40:13;17.00;99.90
16863;DHT22;52193;48.216;-1.698;2023-03-23T09:42:55;17.10;99.90
16863;DHT22;52193;48.216;-1.698;2023-03-23T09:45:27;17.10;99.90
16863;DHT22;52193;48.216;-1.698;2023-03-23T09:48:13;17.20;99.90
16863;DHT22;52193;48.216;-1.698;2023-03-23T09:50:42;17.20;99.90
16863;DHT22;52193;48.216;-1.698;2023-03-23T09:53:16;17.30;99.90
16863;DHT22;52193;48.216;-1.698;2023-03-23T09:55:44;17.30;99.90
16863;DHT22;52193;48.216;-1.698;2023-03-23T09:58:18;17.40;99.90
16863;DHT22;52193;48.216;-1.698;2023-03-23T10:00:54;17.40;99.90
16863;DHT22;52193;48.216;-1.698;2023-03-23T10:03:24;17.40;99.90
16863;DHT22;52193;48.216;-1.698;2023-03-23T10:05:54;17.50;99.90
16863;DHT22;52193;48.216;-1.698;2023-03-23T10:08:23;17.60;99.90
16863;DHT22;52193;48.216;-1.698;2023-03-23T10:10:59;17.60;99.90
16863;DHT22;52193;48.216;-1.698;2023-03-23T10:13:43;17.60;99.90
16863;DHT22;52193;48.216;-1.698;2023-03-23T10:16:15;17.60;99.90
16863;DHT22;52193;48.216;-1.698;2023-03-23T10:18:49;17.50;99.90
16863;DHT22;52193;48.216;-1.698;2023-03-23T10:21:23;17.60;99.90
16863;DHT22;52193;48.216;-1.698;2023-03-23T10:23:54;17.60;99.90
16863;DHT22;52193;48.216;-1.698;2023-03-23T10:26:31;17.60;99.90
16863;DHT22;52193;48.216;-1.698;2023-03-23T10:29:07;17.70;99.90
16863;DHT22;52193;48.216;-1.698;2023-03-23T10:31:39;17.70;99.90
16863;DHT22;52193;48.216;-1.698;2023-03-23T10:34:11;17.70;99.90
16863;DHT22;52193;48.216;-1.698;2023-03-23T10:36:57;17.90;99.90
16863;DHT22;52193;48.216;-1.698;2023-03-23T10:39:29;17.90;99.90
16863;DHT22;52193;48.216;-1.698;2023-03-23T10:42:00;17.90;99.90
16863;DHT22;52193;48.216;-1.698;2023-03-23T10:44:34;18.00;99.90
16863;DHT22;52193;48.216;-1.698;2023-03-23T10:47:02;17.90;99.90
16863;DHT22;52193;48.216;-1.698;2023-03-23T10:49:34;17.90;99.90
16863;DHT22;52193;48.216;-1.698;2023-03-23T10:52:09;17.80;99.90
16863;DHT22;52193;48.216;-1.698;2023-03-23T10:54:45;17.80;99.90
16863;DHT22;52193;48.216;-1.698;2023-03-23T10:57:21;17.80;99.90
16863;DHT22;52193;48.216;-1.698;2023-03-23T10:59:50;17.80;99.90
16863;DHT22;52193;48.216;-1.698;2023-03-23T11:02:18;17.90;99.90
16863;DHT22;52193;48.216;-1.698;2023-03-23T11:04:56;18.00;99.90
16863;DHT22;52193;48.216;-1.698;2023-03-23T11:07:28;18.00;99.90
16863;DHT22;52193;48.216;-1.698;2023-03-23T11:09:56;17.90;99.90
16863;DHT22;52193;48.216;-1.698;2023-03-23T11:12:25;17.80;99.90
16863;DHT22;52193;48.216;-1.698;2023-03-23T11:15:04;17.80;99.90
16863;DHT22;52193;48.216;-1.698;2023-03-23T11:17:36;17.80;99.90
16863;DHT22;52193;48.216;-1.698;2023-03-23T11:20:10;17.80;99.90
16863;DHT22;52193;48.216;-1.698;2023-03-23T11:22:38;17.90;99.90
16863;DHT22;52193;48.216;-1.698;2023-03-23T11:25:09;17.80;99.90
16863;DHT22;52193;48.216;-1.698;2023-03-23T11:27:38;17.80;99.90
16863;DHT22;52193;48.216;-1.698;2023-03-23T11:30:14;17.80;99.90
16863;DHT22;52193;48.216;-1.698;2023-03-23T11:32:45;17.70;99.90
16863;DHT22;52193;48.216;-1.698;2023-03-23T11:35:16;17.70;99.90
16863;DHT22;52193;48.216;-1.698;2023-03-23T11:37:47;17.80;99.90
16863;DHT22;52193;48.216;-1.698;2023-03-23T11:40:17;17.70;99.90
16863;DHT22;52193;48.216;-1.698;2023-03-23T11:42:47;17.70;99.90
16863;DHT22;52193;48.216;-1.698;2023-03-23T11:45:19;17.70;99.90
16863;DHT22;52193;48.216;-1.698;2023-03-23T11:47:56;17.70;99.90
16863;DHT22;52193;48.216;-1.698;2023-03-23T11:50:26;17.70;99.90
16863;DHT22;52193;48.216;-1.698;2023-03-23T11:53:00;17.70;99.90
16863;DHT22;52193;48.216;-1.698;2023-03-23T11:55:33;17.70;99.90
16863;DHT22;52193;48.216;-1.698;2023-03-23T11:58:09;17.70;99.90
16863;DHT22;52193;48.216;-1.698;2023-03-23T12:00:41;17.80;99.90
16863;DHT22;52193;48.216;-1.698;2023-03-23T12:03:38;17.80;99.90
16863;DHT22;52193;48.216;-1.698;2023-03-23T12:06:08;17.80;99.90
16863;DHT22;52193;48.216;-1.698;2023-03-23T12:08:54;18.00;99.90
16863;DHT22;52193;48.216;-1.698;2023-03-23T12:11:31;18.10;99.90
16863;DHT22;52193;48.216;-1.698;2023-03-23T12:14:10;18.20;99.90
16863;DHT22;52193;48.216;-1.698;2023-03-23T12:16:51;18.40;99.90
16863;DHT22;52193;48.216;-1.698;2023-03-23T12:19:27;18.40;99.90
16863;DHT22;52193;48.216;-1.698;2023-03-23T12:22:01;18.40;99.90
16863;DHT22;52193;48.216;-1.698;2023-03-23T12:24:41;18.50;99.90
16863;DHT22;52193;48.216;-1.698;2023-03-23T12:27:18;18.60;99.90
16863;DHT22;52193;48.216;-1.698;2023-03-23T12:30:02;18.60;99.90
16863;DHT22;52193;48.216;-1.698;2023-03-23T12:32:40;18.70;99.90
16863;DHT22;52193;48.216;-1.698;2023-03-23T12:35:22;18.60;99.90
16863;DHT22;52193;48.216;-1.698;2023-03-23T12:38:01;18.70;99.90
16863;DHT22;52193;48.216;-1.698;2023-03-23T12:40:44;18.70;99.90
16863;DHT22;52193;48.216;-1.698;2023-03-23T12:43:19;18.70;99.90
16863;DHT22;52193;48.216;-1.698;2023-03-23T12:45:59;18.70;99.90
16863;DHT22;52193;48.216;-1.698;2023-03-23T12:48:33;18.80;99.90
16863;DHT22;52193;48.216;-1.698;2023-03-23T12:51:14;18.90;99.90
16863;DHT22;52193;48.216;-1.698;2023-03-23T12:53:49;19.00;99.90
16863;DHT22;52193;48.216;-1.698;2023-03-23T12:56:22;19.10;99.90
16863;DHT22;52193;48.216;-1.698;2023-03-23T12:58:54;19.10;99.90
16863;DHT22;52193;48.216;-1.698;2023-03-23T13:01:27;19.00;99.90
16863;DHT22;52193;48.216;-1.698;2023-03-23T13:03:58;19.00;99.90
16863;DHT22;52193;48.216;-1.698;2023-03-23T13:06:29;19.10;99.90
16863;DHT22;52193;48.216;-1.698;2023-03-23T13:09:02;19.20;99.90
16863;DHT22;52193;48.216;-1.698;2023-03-23T13:11:34;19.20;99.90
16863;DHT22;52193;48.216;-1.698;2023-03-23T13:14:10;19.30;99.90
16863;DHT22;52193;48.216;-1.698;2023-03-23T13:16:44;19.50;99.90
16863;DHT22;52193;48.216;-1.698;2023-03-23T13:19:22;19.60;99.90
16863;DHT22;52193;48.216;-1.698;2023-03-23T13:21:55;19.60;99.90
16863;DHT22;52193;48.216;-1.698;2023-03-23T13:24:26;19.70;99.90
16863;DHT22;52193;48.216;-1.698;2023-03-23T13:26:55;19.60;99.90
16863;DHT22;52193;48.216;-1.698;2023-03-23T13:29:24;19.70;99.90
16863;DHT22;52193;48.216;-1.698;2023-03-23T13:32:05;19.70;99.90
16863;DHT22;52193;48.216;-1.698;2023-03-23T13:34:35;19.70;99.90
16863;DHT22;52193;48.216;-1.698;2023-03-23T13:37:05;19.80;99.90
16863;DHT22;52193;48.216;-1.698;2023-03-23T13:39:35;19.60;99.90
16863;DHT22;52193;48.216;-1.698;2023-03-23T13:42:05;19.60;99.90
16863;DHT22;52193;48.216;-1.698;2023-03-23T13:44:55;19.50;99.90
16863;DHT22;52193;48.216;-1.698;2023-03-23T13:47:27;19.50;99.90
16863;DHT22;52193;48.216;-1.698;2023-03-23T13:49:58;19.40;99.90
16863;DHT22;52193;48.216;-1.698;2023-03-23T13:52:38;19.50;99.90
16863;DHT22;52193;48.216;-1.698;2023-03-23T13:55:30;19.50;99.90
16863;DHT22;52193;48.216;-1.698;2023-03-23T13:57:58;19.40;99.90
16863;DHT22;52193;48.216;-1.698;2023-03-23T14:00:46;19.30;99.90
16863;DHT22;52193;48.216;-1.698;2023-03-23T14:03:23;19.20;99.90
16863;DHT22;52193;48.216;-1.698;2023-03-23T14:06:02;19.20;99.90
16863;DHT22;52193;48.216;-1.698;2023-03-23T14:08:39;19.10;99.90
16863;DHT22;52193;48.216;-1.698;2023-03-23T14:11:19;19.00;99.90
16863;DHT22;52193;48.216;-1.698;2023-03-23T14:13:58;19.10;99.90
16863;DHT22;52193;48.216;-1.698;2023-03-23T14:16:32;19.10;99.90
16863;DHT22;52193;48.216;-1.698;2023-03-23T14:19:03;19.00;99.90
16863;DHT22;52193;48.216;-1.698;2023-03-23T14:21:36;19.00;99.30
16863;DHT22;52193;48.216;-1.698;2023-03-23T14:24:08;19.00;99.50
16863;DHT22;52193;48.216;-1.698;2023-03-23T14:26:36;18.90;98.80
16863;DHT22;52193;48.216;-1.698;2023-03-23T14:29:04;19.00;99.20
16863;DHT22;52193;48.216;-1.698;2023-03-23T14:31:32;19.00;99.50
16863;DHT22;52193;48.216;-1.698;2023-03-23T14:34:02;18.90;99.90
16863;DHT22;52193;48.216;-1.698;2023-03-23T14:36:30;18.80;99.90
16863;DHT22;52193;48.216;-1.698;2023-03-23T14:39:02;18.70;99.90
16863;DHT22;52193;48.216;-1.698;2023-03-23T14:41:32;18.60;99.90
16863;DHT22;52193;48.216;-1.698;2023-03-23T14:44:01;18.60;99.90
16863;DHT22;52193;48.216;-1.698;2023-03-23T14:46:29;18.50;99.90
16863;DHT22;52193;48.216;-1.698;2023-03-23T14:48:59;18.30;99.90
16863;DHT22;52193;48.216;-1.698;2023-03-23T14:51:27;18.10;99.90
16863;DHT22;52193;48.216;-1.698;2023-03-23T14:53:54;18.00;99.90
16863;DHT22;52193;48.216;-1.698;2023-03-23T14:56:23;17.90;99.90
16863;DHT22;52193;48.216;-1.698;2023-03-23T14:58:53;17.80;99.90
16863;DHT22;52193;48.216;-1.698;2023-03-23T15:01:24;17.70;99.90
16863;DHT22;52193;48.216;-1.698;2023-03-23T15:03:56;17.60;99.90
16863;DHT22;52193;48.216;-1.698;2023-03-23T15:06:27;17.60;99.90
16863;DHT22;52193;48.216;-1.698;2023-03-23T15:08:56;17.40;99.90
16863;DHT22;52193;48.216;-1.698;2023-03-23T15:11:28;17.40;99.90
16863;DHT22;52193;48.216;-1.698;2023-03-23T15:13:58;17.20;99.90
16863;DHT22;52193;48.216;-1.698;2023-03-23T15:16:30;17.30;99.90
16863;DHT22;52193;48.216;-1.698;2023-03-23T15:18:59;17.20;99.90
16863;DHT22;52193;48.216;-1.698;2023-03-23T15:21:29;17.10;99.90
16863;DHT22;52193;48.216;-1.698;2023-03-23T15:23:56;16.90;99.90
16863;DHT22;52193;48.216;-1.698;2023-03-23T15:26:28;16.90;99.90
16863;DHT22;52193;48.216;-1.698;2023-03-23T15:29:16;16.80;99.90
16863;DHT22;52193;48.216;-1.698;2023-03-23T15:31:45;16.80;99.90
16863;DHT22;52193;48.216;-1.698;2023-03-23T15:34:24;16.70;99.90
16863;DHT22;52193;48.216;-1.698;2023-03-23T15:36:55;16.70;99.90
16863;DHT22;52193;48.216;-1.698;2023-03-23T15:39:23;16.50;99.90